Impacts METAR Board INFO
IDs:

KEWR - Newark Intl, NJ, US

Updated at: 2204 UTC 21 Jan 2018
Potential Impact None Slight Moderate High
Time21/10Z 21/11Z 21/12Z 21/13Z 21/14Z 21/15Z 21/16Z 21/17Z 21/18Z 21/19Z 21/20Z 21/21Z 21/22Z
VIS10 10 10 10 10 10 10 10 10 10 10 10 10
CIG-- -- -- 250 250 250 250 250 250 250 250 200 42
CoverFEWFEWSCTBKNBKNBKNBKNBKNBKNBKNBKNBKNBKN
FltCatVFRVFRVFRVFRVFRVFRVFRVFRVFRVFRVFRVFRVFR
WX--------------------------
WDir0230210220240270310260280320240210240
WSpd0 4 3 4 4 4 8 6 8 4 7 5 10
WGst-- -- -- -- -- -- -- -- -- -- -- -- --
Raw hourly METARs
KEWR 210951Z 00000KT 10SM FEW250 03/M03 A3010 RMK AO2 SLP191 T00281028 $
KEWR 211051Z 23004KT 10SM FEW250 02/M02 A3012 RMK AO2 SLP199 T00221022 $
KEWR 211151Z 21003KT 10SM SCT250 02/M02 A3015 RMK AO2 SLP207 T00221022 10039 20011 53021 $
KEWR 211251Z 22004KT 10SM BKN250 03/M02 A3016 RMK AO2 SLP214 T00331017 $
KEWR 211351Z 24004KT 10SM BKN250 06/00 A3017 RMK AO2 SLP216 T00560000 $
KEWR 211451Z 27004KT 10SM BKN250 08/M01 A3019 RMK AO2 SLP222 T00831011 51015 $
KEWR 211551Z 31008KT 10SM SCT200 BKN250 09/M02 A3019 RMK AO2 SLP222 T00941017 $
KEWR 211651Z 26006KT 10SM SCT200 BKN250 10/M02 A3017 RMK AO2 SLP216 T01001017 $
KEWR 211751Z 28008KT 10SM FEW200 BKN250 11/M02 A3015 RMK AO2 SLP207 T01111017 10111 20022 58015 $
KEWR 211851Z 32004KT 10SM FEW200 BKN250 12/M02 A3013 RMK AO2 SLP201 T01171017 $
KEWR 211951Z 24007KT 10SM FEW200 BKN250 12/M01 A3013 RMK AO2 SLP202 T01171011 $
KEWR 212051Z 21005KT 10SM SCT065 BKN200 BKN250 11/M01 A3014 RMK AO2 SLP205 T01111006 55002 $
KEWR 212151Z 24010KT 10SM BKN042 BKN065 BKN250 10/01 A3015 RMK AO2 SLP209 T01000006 $